Dollar Bay, Michigan
Current Conditions -  °F | °C
As of 2:53 PM on Sunday 23 Nov 2014 (Local Time) from KCMX Reporting Station
Overcast Overcast  
Wind Chill: 40°   Ceiling: 1200
Heat Index: 43°   Visibility: 10mi
Dew Point: 39°   Wind: 5mph
Humidity: 86%   Direction: 80°E
Pressure: 29.42"   Gusts: NA
Location:  47.12°N, 88.5°W
Report Text: KCMX 231953Z AUTO 08004KT 10SM OVC012 06/04 A2942 RMK AO2 SLP970 T00610039
Loading
Personal Weather Stations






























Interactive Weather Map New forecast layout! Learn more

10-Day Weather Forecast

Advertisements
Track Severe Weather on mobile